createdAt,value
2024-04-13T00:01:13.582Z,11.62
2024-04-13T00:03:42.685Z,11.60
2024-04-13T00:06:15.139Z,11.58
2024-04-13T00:08:42.270Z,11.56
2024-04-13T00:11:12.275Z,11.54
2024-04-13T00:13:39.643Z,11.50
2024-04-13T00:16:09.422Z,11.48
2024-04-13T00:18:36.443Z,11.45
2024-04-13T00:21:06.397Z,11.43
2024-04-13T00:23:36.215Z,11.40
2024-04-13T00:26:06.275Z,11.37
2024-04-13T00:28:34.679Z,11.35
2024-04-13T00:31:06.337Z,11.35
2024-04-13T00:33:35.028Z,11.32
2024-04-13T00:36:06.735Z,11.30
2024-04-13T00:38:36.379Z,11.29
2024-04-13T00:41:06.682Z,11.27
2024-04-13T00:43:33.697Z,11.25
2024-04-13T00:46:08.819Z,11.24
2024-04-13T00:48:38.238Z,11.23
2024-04-13T00:51:13.548Z,11.21
2024-04-13T00:53:43.489Z,11.22
2024-04-13T00:56:15.069Z,11.22
2024-04-13T00:58:44.559Z,11.21
2024-04-13T01:01:14.883Z,11.20
2024-04-13T01:03:45.528Z,11.21
2024-04-13T01:06:16.178Z,11.20
2024-04-13T01:08:45.772Z,11.20
2024-04-13T01:11:16.357Z,11.18
2024-04-13T01:13:43.558Z,11.17
2024-04-13T01:16:13.061Z,11.16
2024-04-13T01:18:41.386Z,11.17
2024-04-13T01:21:11.431Z,11.19
2024-04-13T01:23:47.876Z,11.20
2024-04-13T01:26:21.592Z,11.20
2024-04-13T01:28:48.574Z,11.21
2024-04-13T01:31:18.453Z,11.25
2024-04-13T01:33:45.520Z,11.25
2024-04-13T01:36:15.203Z,11.26
2024-04-13T01:38:42.277Z,11.27
2024-04-13T01:41:11.918Z,11.27
2024-04-13T01:43:41.533Z,11.25
2024-04-13T01:46:11.171Z,11.23
2024-04-13T01:48:39.227Z,11.23
2024-04-13T01:51:09.055Z,11.19
2024-04-13T01:53:36.192Z,11.18
2024-04-13T01:56:07.256Z,11.16
2024-04-13T01:58:34.206Z,11.14
2024-04-13T02:01:09.678Z,11.11
2024-04-13T02:03:37.599Z,11.08
2024-04-13T02:06:08.050Z,11.08
2024-04-13T02:08:35.490Z,11.04
2024-04-13T02:11:05.996Z,11.04
2024-04-13T02:13:33.436Z,11.02
2024-04-13T02:16:03.335Z,11.02
2024-04-13T02:18:33.169Z,10.99
2024-04-13T02:21:02.964Z,10.97
2024-04-13T02:23:30.037Z,10.95
2024-04-13T02:26:01.131Z,10.93
2024-04-13T02:28:28.110Z,10.91
2024-04-13T02:30:57.843Z,10.88
2024-04-13T02:33:25.234Z,10.87
2024-04-13T02:36:04.682Z,10.88
2024-04-13T02:38:33.866Z,10.90
2024-04-13T02:41:05.038Z,10.91
2024-04-13T02:43:32.639Z,10.94
2024-04-13T02:46:09.131Z,10.97
2024-04-13T02:48:36.381Z,10.97
2024-04-13T02:51:10.104Z,10.97
2024-04-13T02:53:38.334Z,10.99
2024-04-13T02:56:08.898Z,11.00
2024-04-13T02:58:36.302Z,11.02
2024-04-13T03:01:07.303Z,11.04
2024-04-13T03:03:34.685Z,11.06
2024-04-13T03:06:05.502Z,11.10
2024-04-13T03:08:35.261Z,11.15
2024-04-13T03:11:06.101Z,11.19
2024-04-13T03:13:33.198Z,11.23
2024-04-13T03:16:04.694Z,11.26
2024-04-13T03:18:31.846Z,11.28
2024-04-13T03:21:01.769Z,11.30
2024-04-13T03:23:30.810Z,11.30
2024-04-13T03:26:03.434Z,11.31
2024-04-13T03:28:31.276Z,11.29
2024-04-13T03:31:01.187Z,11.28
2024-04-13T03:33:28.531Z,11.28
2024-04-13T03:36:03.549Z,11.29
2024-04-13T03:38:33.240Z,11.29
2024-04-13T03:41:07.785Z,11.28
2024-04-13T03:43:38.313Z,11.27
2024-04-13T03:46:06.280Z,11.26
2024-04-13T03:48:39.619Z,11.27
2024-04-13T03:51:07.913Z,11.26
2024-04-13T03:53:37.711Z,11.25
2024-04-13T03:56:07.768Z,11.25
2024-04-13T03:58:38.153Z,11.25
2024-04-13T04:01:06.250Z,11.27
2024-04-13T04:03:36.660Z,11.28
2024-04-13T04:06:06.041Z,11.31
2024-04-13T04:08:36.320Z,11.33
2024-04-13T04:11:03.445Z,11.36
2024-04-13T04:13:35.668Z,11.39
2024-04-13T04:16:02.651Z,11.41
2024-04-13T04:18:32.446Z,11.43
2024-04-13T04:20:59.487Z,11.46
2024-04-13T04:23:29.143Z,11.46
2024-04-13T04:25:56.232Z,11.47
2024-04-13T04:28:25.845Z,11.48
2024-04-13T04:30:55.548Z,11.50
2024-04-13T04:33:25.788Z,11.51
2024-04-13T04:35:53.697Z,11.52
2024-04-13T04:38:24.377Z,11.52
2024-04-13T04:40:51.382Z,11.54
2024-04-13T04:43:20.985Z,11.55
2024-04-13T04:45:47.986Z,11.55
2024-04-13T04:48:20.353Z,11.57
2024-04-13T04:50:57.350Z,11.59
2024-04-13T04:53:28.194Z,11.60
2024-04-13T04:55:55.874Z,11.60
2024-04-13T04:58:25.536Z,11.62
2024-04-13T05:00:52.672Z,11.63
2024-04-13T05:03:26.347Z,11.62
2024-04-13T05:05:53.490Z,11.65
2024-04-13T05:08:23.100Z,11.67
2024-04-13T05:10:50.089Z,11.68
2024-04-13T05:13:20.386Z,11.69
2024-04-13T05:15:47.386Z,11.72
2024-04-13T05:18:17.212Z,11.73
2024-04-13T05:20:46.935Z,11.75
2024-04-13T05:23:17.548Z,11.79
2024-04-13T05:25:44.581Z,11.82
2024-04-13T05:28:14.163Z,11.87
2024-04-13T05:30:46.741Z,11.91
2024-04-13T05:33:16.506Z,11.95
2024-04-13T05:35:47.552Z,12.01
2024-04-13T05:38:17.247Z,12.05
2024-04-13T05:40:44.347Z,12.09
2024-04-13T05:43:14.010Z,12.13
2024-04-13T05:45:41.147Z,12.16
2024-04-13T05:48:11.418Z,12.22
2024-04-13T05:50:39.229Z,12.26
2024-04-13T05:53:11.508Z,12.29
2024-04-13T05:55:40.799Z,12.33
2024-04-13T05:58:13.697Z,12.35
2024-04-13T06:00:41.108Z,12.40
2024-04-13T06:03:10.790Z,12.47
2024-04-13T06:05:40.993Z,12.50
2024-04-13T06:08:14.398Z,12.54
2024-04-13T06:10:41.753Z,12.58
2024-04-13T06:13:11.299Z,12.63
2024-04-13T06:15:39.342Z,12.69
2024-04-13T06:18:09.190Z,12.75
2024-04-13T06:20:36.210Z,12.81
2024-04-13T06:23:05.838Z,12.86
2024-04-13T06:25:35.528Z,12.92
2024-04-13T06:28:05.165Z,12.95
2024-04-13T06:30:32.222Z,12.98
2024-04-13T06:33:01.932Z,13.03
2024-04-13T06:35:28.939Z,13.05
2024-04-13T06:37:58.456Z,13.08
2024-04-13T06:40:25.563Z,13.14
2024-04-13T06:42:57.848Z,13.21
2024-04-13T06:45:25.264Z,13.32
2024-04-13T06:47:54.871Z,13.41
2024-04-13T06:50:21.916Z,13.55
2024-04-13T06:52:51.569Z,13.66
2024-04-13T06:55:18.694Z,13.78
2024-04-13T06:57:48.337Z,13.90
2024-04-13T07:00:18.510Z,14.00
2024-04-13T07:02:48.743Z,14.07
2024-04-13T07:05:15.909Z,14.13
2024-04-13T07:07:45.456Z,14.18
2024-04-13T07:10:12.458Z,14.25
2024-04-13T07:12:42.096Z,14.33
2024-04-13T07:15:09.906Z,14.40
2024-04-13T07:17:42.255Z,14.50
2024-04-13T07:20:09.817Z,14.57
2024-04-13T07:22:39.535Z,14.63
2024-04-13T07:25:06.804Z,14.70
2024-04-13T07:27:36.668Z,14.81
2024-04-13T07:30:04.359Z,14.91
2024-04-13T07:32:34.038Z,15.00
2024-04-13T07:35:05.031Z,15.09
2024-04-13T07:37:35.089Z,15.15
2024-04-13T07:40:02.057Z,15.23
2024-04-13T07:42:31.734Z,15.32
2024-04-13T07:44:58.678Z,15.41
2024-04-13T07:47:28.397Z,15.52
2024-04-13T07:49:55.430Z,15.59
2024-04-13T07:52:27.636Z,15.67
2024-04-13T07:54:54.592Z,15.75
2024-04-13T07:57:24.361Z,15.84
2024-04-13T07:59:51.365Z,15.92
2024-04-13T08:02:21.052Z,16.02
2024-04-13T08:04:48.260Z,16.11
2024-04-13T08:07:17.874Z,16.21
2024-04-13T08:09:47.607Z,16.34
2024-04-13T08:12:17.213Z,16.46
2024-04-13T08:14:44.348Z,16.55
2024-04-13T08:17:14.647Z,16.62
2024-04-13T08:19:41.841Z,16.69
2024-04-13T08:22:11.444Z,16.76
2024-04-13T08:24:38.474Z,16.84
2024-04-13T08:27:10.937Z,16.90
2024-04-13T08:29:38.493Z,16.96
2024-04-13T08:32:08.657Z,17.01
2024-04-13T08:34:35.630Z,17.10
2024-04-13T08:37:05.296Z,17.18
2024-04-13T08:39:32.360Z,17.28
2024-04-13T08:42:07.833Z,17.39
2024-04-13T08:44:38.294Z,17.50
2024-04-13T08:47:09.667Z,17.59
2024-04-13T08:49:40.903Z,17.68
2024-04-13T08:52:11.393Z,17.77
2024-04-13T08:54:38.599Z,17.81
2024-04-13T08:57:09.977Z,17.84
2024-04-13T08:59:41.298Z,17.87
2024-04-13T09:02:17.276Z,17.98
2024-04-13T09:04:44.448Z,18.07
2024-04-13T09:07:14.653Z,18.16
2024-04-13T09:09:41.919Z,18.19
2024-04-13T09:12:11.756Z,18.22
2024-04-13T09:14:42.064Z,18.29
2024-04-13T09:17:12.038Z,18.33
2024-04-13T09:19:39.068Z,18.42
2024-04-13T09:22:10.587Z,18.52
2024-04-13T09:24:41.219Z,18.59
2024-04-13T09:27:18.106Z,18.64
2024-04-13T09:29:48.418Z,18.66
2024-04-13T09:32:26.671Z,18.73
2024-04-13T09:34:55.578Z,18.82
2024-04-13T09:37:26.026Z,18.86
2024-04-13T09:40:01.585Z,18.88
2024-04-13T09:42:31.944Z,18.90
2024-04-13T09:45:06.904Z,18.93
2024-04-13T09:47:37.112Z,18.91
2024-04-13T09:50:05.255Z,18.87
2024-04-13T09:52:35.943Z,18.83
2024-04-13T09:57:33.393Z,18.94
2024-04-13T10:00:02.490Z,18.97
2024-04-13T10:02:37.968Z,19.06
2024-04-13T10:05:05.796Z,19.13
2024-04-13T10:07:37.489Z,19.18
2024-04-13T10:10:07.402Z,19.27
2024-04-13T10:12:41.171Z,19.30
2024-04-13T10:15:10.299Z,19.38
2024-04-13T10:17:44.831Z,19.41
2024-04-13T10:20:11.960Z,19.44
2024-04-13T10:22:41.620Z,19.50
2024-04-13T10:25:09.375Z,19.58
2024-04-13T10:27:41.570Z,19.61
2024-04-13T10:30:09.266Z,19.60
2024-04-13T10:32:48.817Z,19.60
2024-04-13T10:35:20.650Z,19.62
2024-04-13T10:37:50.286Z,19.73
2024-04-13T10:40:25.368Z,19.82
2024-04-13T10:42:54.991Z,19.89
2024-04-13T10:45:22.141Z,19.90
2024-04-13T10:47:54.663Z,19.93
2024-04-13T10:50:21.496Z,19.95
2024-04-13T10:52:51.109Z,20.02
2024-04-13T10:55:20.019Z,20.04
2024-04-13T10:57:50.664Z,19.99
2024-04-13T11:00:19.263Z,19.99
2024-04-13T11:02:51.382Z,20.05
2024-04-13T11:05:22.178Z,20.13
2024-04-13T11:07:52.811Z,20.17
2024-04-13T11:10:20.319Z,20.20
2024-04-13T11:12:52.217Z,20.26
2024-04-13T11:15:20.607Z,20.29
2024-04-13T11:17:51.118Z,20.33
2024-04-13T11:20:18.367Z,20.37
2024-04-13T11:22:50.707Z,20.42
2024-04-13T11:25:19.617Z,20.53
2024-04-13T11:27:49.893Z,20.62
2024-04-13T11:30:18.810Z,20.62
2024-04-13T11:32:48.925Z,20.59
2024-04-13T11:35:17.228Z,20.54
2024-04-13T11:38:01.615Z,20.58
2024-04-13T11:40:30.965Z,20.58
2024-04-13T11:43:01.195Z,20.59
2024-04-13T11:45:28.565Z,20.62
2024-04-13T11:47:58.651Z,20.63
2024-04-13T11:50:25.866Z,20.72
2024-04-13T11:52:56.406Z,20.77
2024-04-13T11:55:29.727Z,20.85
2024-04-13T11:57:59.417Z,20.78
2024-04-13T12:00:26.523Z,20.77
2024-04-13T12:02:57.668Z,20.76
2024-04-13T12:05:24.765Z,20.79
2024-04-13T12:07:54.578Z,20.93
2024-04-13T12:10:21.885Z,21.06
2024-04-13T12:12:54.257Z,21.11
2024-04-13T12:15:21.352Z,21.14
2024-04-13T12:17:51.036Z,21.23
2024-04-13T12:20:18.108Z,21.35
2024-04-13T12:22:47.751Z,21.36
2024-04-13T12:25:14.852Z,21.37
2024-04-13T12:27:44.553Z,21.35
2024-04-13T12:30:14.949Z,21.28
2024-04-13T12:32:44.808Z,21.19
2024-04-13T12:35:12.534Z,21.18
2024-04-13T12:37:42.216Z,21.18
2024-04-13T12:40:10.222Z,21.17
2024-04-13T12:42:39.940Z,21.15
2024-04-13T12:45:07.179Z,21.16
2024-04-13T12:47:40.066Z,21.18
2024-04-13T12:50:07.822Z,21.21
2024-04-13T12:52:37.834Z,21.18
2024-04-13T12:55:05.382Z,21.19
2024-04-13T12:57:35.122Z,21.28
2024-04-13T13:00:04.058Z,21.37
2024-04-13T13:02:33.941Z,21.41
2024-04-13T13:05:03.895Z,21.36
2024-04-13T13:07:33.767Z,21.35
2024-04-13T13:10:00.990Z,21.33
2024-04-13T13:12:30.779Z,21.40
2024-04-13T13:14:57.741Z,21.38
2024-04-13T13:17:28.047Z,21.39
2024-04-13T13:19:55.315Z,21.32
2024-04-13T13:22:27.530Z,21.24
2024-04-13T13:24:54.572Z,21.24
2024-04-13T13:27:24.291Z,21.32
2024-04-13T13:29:51.533Z,21.40
2024-04-13T13:32:21.177Z,21.43
2024-04-13T13:34:48.215Z,21.41
2024-04-13T13:37:17.875Z,21.47
2024-04-13T13:39:47.541Z,21.61
2024-04-13T13:42:17.182Z,21.69
2024-04-13T13:44:44.217Z,21.76
2024-04-13T13:47:13.850Z,21.74
2024-04-13T13:49:40.819Z,21.76
2024-04-13T13:52:10.448Z,21.80
2024-04-13T13:54:37.468Z,21.82
2024-04-13T13:57:10.557Z,21.82
2024-04-13T13:59:37.634Z,21.85
2024-04-13T14:02:07.673Z,21.84
2024-04-13T14:04:34.739Z,21.76
2024-04-13T14:07:04.460Z,21.69
2024-04-13T14:09:33.270Z,21.67
2024-04-13T14:12:02.870Z,21.69
2024-04-13T14:14:32.585Z,21.68
2024-04-13T14:17:02.290Z,21.64
2024-04-13T14:19:29.561Z,21.65
2024-04-13T14:21:59.212Z,21.70
2024-04-13T14:24:27.576Z,21.77
2024-04-13T14:26:57.240Z,21.83
2024-04-13T14:29:24.345Z,21.92
2024-04-13T14:31:56.580Z,22.00
2024-04-13T14:34:23.629Z,22.07
2024-04-13T14:36:53.357Z,22.10
2024-04-13T14:39:20.473Z,22.11
2024-04-13T14:41:50.183Z,22.08
2024-04-13T14:44:17.290Z,21.99
2024-04-13T14:46:48.433Z,21.91
2024-04-13T14:49:18.140Z,21.88
2024-04-13T14:51:47.878Z,21.90
2024-04-13T14:54:14.957Z,22.02
2024-04-13T14:56:45.874Z,22.14
2024-04-13T14:59:12.883Z,22.27
2024-04-13T15:01:43.087Z,22.27
2024-04-13T15:04:10.550Z,22.25
2024-04-13T15:06:42.957Z,22.30
2024-04-13T15:09:09.960Z,22.27
2024-04-13T15:11:39.575Z,22.18
2024-04-13T15:14:06.565Z,22.09
2024-04-13T15:16:36.343Z,22.06
2024-04-13T15:19:03.678Z,22.05
2024-04-13T15:21:33.406Z,22.07
2024-04-13T15:24:03.149Z,22.12
2024-04-13T15:26:32.852Z,22.19
2024-04-13T15:29:00.199Z,22.24
2024-04-13T15:31:30.322Z,22.27
2024-04-13T15:33:57.396Z,22.26
2024-04-13T15:36:27.245Z,22.23
2024-04-13T15:38:54.311Z,22.17
2024-04-13T15:41:26.651Z,22.13
2024-04-13T15:43:53.743Z,22.13
2024-04-13T15:46:23.403Z,22.11
2024-04-13T15:48:50.502Z,22.16
2024-04-13T15:51:20.225Z,22.14
2024-04-13T15:53:47.204Z,22.10
2024-04-13T15:56:16.803Z,22.12
2024-04-13T15:58:46.440Z,22.15
2024-04-13T16:01:16.175Z,22.11
2024-04-13T16:03:43.334Z,22.06
2024-04-13T16:06:13.070Z,22.00
2024-04-13T16:08:40.079Z,21.95
2024-04-13T16:11:09.888Z,21.92
2024-04-13T16:13:38.101Z,21.88
2024-04-13T16:16:18.411Z,21.79
2024-04-13T16:18:50.910Z,21.70
2024-04-13T16:21:20.651Z,21.66
2024-04-13T16:23:47.769Z,21.63
2024-04-13T16:26:17.466Z,21.61
2024-04-13T16:28:44.440Z,21.58
2024-04-13T16:31:16.734Z,21.56
2024-04-13T16:33:43.767Z,21.50
2024-04-13T16:36:13.441Z,21.47
2024-04-13T16:38:40.569Z,21.44
2024-04-13T16:41:10.439Z,21.43
2024-04-13T16:43:37.446Z,21.42
2024-04-13T16:46:07.360Z,21.39
2024-04-13T16:48:37.296Z,21.35
2024-04-13T16:51:07.150Z,21.29
2024-04-13T16:53:36.021Z,21.25
2024-04-13T16:56:07.265Z,21.22
2024-04-13T16:58:34.434Z,21.18
2024-04-13T17:01:04.255Z,21.15
2024-04-13T17:03:31.406Z,21.15
2024-04-13T17:06:03.768Z,21.13
2024-04-13T17:08:30.758Z,21.11
2024-04-13T17:11:00.422Z,21.08
2024-04-13T17:13:27.500Z,21.04
2024-04-13T17:15:57.207Z,21.00
2024-04-13T17:18:24.445Z,20.94
2024-04-13T17:20:54.472Z,20.90
2024-04-13T17:23:24.132Z,20.86
2024-04-13T17:25:54.606Z,20.81
2024-04-13T17:28:21.707Z,20.77
2024-04-13T17:30:51.433Z,20.73
2024-04-13T17:33:18.544Z,20.67
2024-04-13T17:35:49.800Z,20.60
2024-04-13T17:38:17.083Z,20.55
2024-04-13T17:40:49.294Z,20.50
2024-04-13T17:43:16.266Z,20.43
2024-04-13T17:45:45.868Z,20.36
2024-04-13T17:48:12.997Z,20.29
2024-04-13T17:50:42.606Z,20.23
2024-04-13T17:53:10.675Z,20.16
2024-04-13T17:55:40.306Z,20.11
2024-04-13T17:58:10.107Z,20.02
2024-04-13T18:00:40.240Z,19.94
2024-04-13T18:03:07.320Z,19.87
2024-04-13T18:05:37.053Z,19.82
2024-04-13T18:08:05.618Z,19.75
2024-04-13T18:10:35.308Z,19.65
2024-04-13T18:13:02.404Z,19.56
2024-04-13T18:15:34.745Z,19.49
2024-04-13T18:18:01.704Z,19.43
2024-04-13T18:20:31.473Z,19.36
2024-04-13T18:22:58.442Z,19.26
2024-04-13T18:25:28.209Z,19.16
2024-04-13T18:27:55.483Z,19.02
2024-04-13T18:30:25.142Z,18.92
2024-04-13T18:32:54.907Z,18.82
2024-04-13T18:35:24.652Z,18.73
2024-04-13T18:37:52.947Z,18.63
2024-04-13T18:40:22.684Z,18.56
2024-04-13T18:42:49.768Z,18.50
2024-04-13T18:45:21.037Z,18.45
2024-04-13T18:47:48.554Z,18.37
2024-04-13T18:50:20.964Z,18.29
2024-04-13T18:52:47.775Z,18.22
2024-04-13T18:55:20.707Z,18.16
2024-04-13T18:57:47.746Z,18.07
2024-04-13T19:00:18.735Z,17.99
2024-04-13T19:02:46.739Z,17.89
2024-04-13T19:05:16.457Z,17.80
2024-04-13T19:07:46.135Z,17.73
2024-04-13T19:10:15.914Z,17.67
2024-04-13T19:12:43.026Z,17.60
2024-04-13T19:15:13.520Z,17.52
2024-04-13T19:17:41.059Z,17.44
2024-04-13T19:20:11.223Z,17.36
2024-04-13T19:22:38.168Z,17.28
2024-04-13T19:25:10.648Z,17.19
2024-04-13T19:27:37.690Z,17.10
2024-04-13T19:30:11.687Z,17.02
2024-04-13T19:32:38.830Z,16.90
2024-04-13T19:35:08.636Z,16.81
2024-04-13T19:37:35.786Z,16.76
2024-04-13T19:40:07.792Z,16.70
2024-04-13T19:42:37.602Z,16.63
2024-04-13T19:45:08.320Z,16.55
2024-04-13T19:47:35.473Z,16.48
2024-04-13T19:50:05.948Z,16.42
2024-04-13T19:52:33.110Z,16.33
2024-04-13T19:55:03.180Z,16.25
2024-04-13T19:57:30.456Z,16.18
2024-04-13T20:00:06.049Z,16.11
2024-04-13T20:02:34.029Z,16.02
2024-04-13T20:05:05.616Z,15.95
2024-04-13T20:07:32.809Z,15.88
2024-04-13T20:10:02.601Z,15.83
2024-04-13T20:12:29.716Z,15.74
2024-04-13T20:15:18.126Z,15.68
2024-04-13T20:18:02.905Z,15.64
2024-04-13T20:20:32.574Z,15.61
2024-04-13T20:23:02.293Z,15.57
2024-04-13T20:25:36.638Z,15.53
2024-04-13T20:28:06.461Z,15.48
2024-04-13T20:30:38.850Z,15.48
2024-04-13T20:33:06.098Z,15.47
2024-04-13T20:35:35.749Z,15.47
2024-04-13T20:38:03.109Z,15.46
2024-04-13T20:40:32.810Z,15.43
2024-04-13T20:43:01.495Z,15.41
2024-04-13T20:45:31.194Z,15.39
2024-04-13T20:48:00.925Z,15.36
2024-04-13T20:50:30.635Z,15.32
2024-04-13T20:53:01.586Z,15.28
2024-04-13T20:55:32.023Z,15.25
2024-04-13T20:57:59.178Z,15.20
2024-04-13T21:00:31.461Z,15.16
2024-04-13T21:03:01.265Z,15.13
2024-04-13T21:05:34.452Z,15.09
2024-04-13T21:08:01.965Z,15.06
2024-04-13T21:10:32.368Z,15.01
2024-04-13T21:13:01.466Z,14.98
2024-04-13T21:15:36.126Z,14.93
2024-04-13T21:18:07.946Z,14.88
2024-04-13T21:20:38.322Z,14.84
2024-04-13T21:23:05.549Z,14.78
2024-04-13T21:25:39.491Z,14.74
2024-04-13T21:28:08.127Z,14.69
2024-04-13T21:30:39.177Z,14.65
2024-04-13T21:33:09.084Z,14.61
2024-04-13T21:35:38.956Z,14.57
2024-04-13T21:38:05.953Z,14.55
2024-04-13T21:40:35.588Z,14.51
2024-04-13T21:43:03.452Z,14.48
2024-04-13T21:45:33.191Z,14.48
2024-04-13T21:48:00.427Z,14.47
2024-04-13T21:50:32.780Z,14.47
2024-04-13T21:53:00.678Z,14.49
2024-04-13T21:55:30.290Z,14.49
2024-04-13T21:57:58.211Z,14.52
2024-04-13T22:00:28.252Z,14.53
2024-04-13T22:06:38.755Z,14.55
2024-04-13T22:09:08.736Z,14.55
2024-04-13T22:11:38.784Z,14.53
2024-04-13T22:14:05.789Z,14.52
2024-04-13T22:16:35.430Z,14.51
2024-04-13T22:19:03.269Z,14.51
2024-04-13T22:21:33.095Z,14.54
2024-04-13T22:24:03.159Z,14.56
2024-04-13T22:26:33.539Z,14.58
2024-04-13T22:29:00.568Z,14.58
2024-04-13T22:31:30.120Z,14.57
2024-04-13T22:33:57.227Z,14.61
2024-04-13T22:36:32.339Z,14.64
2024-04-13T22:38:59.494Z,14.69
2024-04-13T22:41:31.837Z,14.71
2024-04-13T22:43:58.904Z,14.72
2024-04-13T22:46:28.494Z,14.71
2024-04-13T22:48:55.564Z,14.67
2024-04-13T22:51:25.337Z,14.65
2024-04-13T22:53:52.386Z,14.59
2024-04-13T22:56:22.059Z,14.56
2024-04-13T22:58:51.692Z,14.52
2024-04-13T23:01:21.620Z,14.49
2024-04-13T23:03:48.751Z,14.47
2024-04-13T23:06:18.414Z,14.41
2024-04-13T23:08:45.442Z,14.39
2024-04-13T23:11:15.109Z,14.36
2024-04-13T23:13:44.176Z,14.34
2024-04-13T23:16:16.564Z,14.28
2024-04-13T23:18:43.748Z,14.27
2024-04-13T23:21:13.365Z,14.27
2024-04-13T23:23:40.338Z,14.27
2024-04-13T23:26:10.031Z,14.28
2024-04-13T23:28:37.000Z,14.30
2024-04-13T23:31:06.930Z,14.31
2024-04-13T23:33:36.657Z,14.31
2024-04-13T23:36:06.623Z,14.32
2024-04-13T23:38:33.740Z,14.32
2024-04-13T23:41:03.517Z,14.32
2024-04-13T23:43:30.623Z,14.30
2024-04-13T23:46:04.576Z,14.29
2024-04-13T23:48:31.740Z,14.27
2024-04-13T23:51:05.216Z,14.24
2024-04-13T23:53:33.373Z,14.21
2024-04-13T23:56:03.058Z,14.18
2024-04-13T23:58:30.999Z,14.15
